Time;durP1;ratioP1;P1;durP2;ratioP2;P2;SDS_P1;SDS_P2;PMS_P1;PMS_P2;Temp;Humidity;BMP_temperature;BMP_pressure;BME280_temperature;BME280_humidity;BME280_pressure;Samples;Min_cycle;Max_cycle;Signal;HPM_P1;HPM_P2
2020/12/15 00:02:00;;;;;;;6.60;3.97;;;8.20;99.90;;;;;;5017624;28;20050;-82
2020/12/15 00:04:28;;;;;;;6.47;3.97;;;8.20;99.90;;;;;;5019375;28;20018;-82
2020/12/15 00:06:54;;;;;;;6.85;3.70;;;8.20;99.90;;;;;;5029735;28;20050;-82
2020/12/15 00:09:20;;;;;;;5.68;3.58;;;8.10;99.90;;;;;;5013586;28;20055;-79
2020/12/15 00:11:46;;;;;;;8.80;3.63;;;8.20;99.90;;;;;;5023249;28;20038;-81
2020/12/15 00:14:15;;;;;;;6.03;3.67;;;8.10;99.90;;;;;;5029345;28;20034;-81
2020/12/15 00:16:41;;;;;;;7.55;3.83;;;8.20;99.90;;;;;;5029480;28;20048;-82
2020/12/15 00:19:06;;;;;;;7.07;3.65;;;8.10;99.90;;;;;;5026450;28;20037;-81
2020/12/15 00:21:32;;;;;;;7.10;3.72;;;8.10;99.90;;;;;;5011380;28;20037;-83
2020/12/15 00:23:58;;;;;;;8.18;4.30;;;8.20;99.90;;;;;;5017761;28;20041;-82
2020/12/15 00:26:24;;;;;;;7.03;3.85;;;8.20;99.90;;;;;;5028063;28;20128;-78
2020/12/15 00:28:50;;;;;;;8.52;4.30;;;8.20;99.90;;;;;;5024750;28;20114;-81
2020/12/15 00:31:17;;;;;;;8.68;4.28;;;8.10;99.90;;;;;;5029094;28;20619;-81
2020/12/15 00:33:43;;;;;;;8.40;4.57;;;8.10;99.90;;;;;;5020927;28;20511;-80
2020/12/15 00:36:09;;;;;;;7.75;3.80;;;8.10;99.90;;;;;;5031620;28;20037;-82
2020/12/15 00:38:35;;;;;;;8.27;4.20;;;8.10;99.90;;;;;;5031703;28;20030;-81
2020/12/15 00:41:02;;;;;;;6.05;3.83;;;8.80;99.90;;;;;;5019700;28;20037;-82
2020/12/15 00:43:28;;;;;;;5.80;3.65;;;8.00;99.90;;;;;;5026104;28;20086;-79
2020/12/15 00:45:54;;;;;;;6.82;4.22;;;8.00;99.90;;;;;;5027288;28;20037;-83
2020/12/15 00:48:20;;;;;;;8.45;3.95;;;8.00;99.90;;;;;;5026157;28;20045;-82
2020/12/15 00:50:46;;;;;;;6.22;3.90;;;8.00;99.90;;;;;;5028395;28;20042;-81
2020/12/15 00:53:11;;;;;;;7.80;4.30;;;8.00;99.90;;;;;;5024374;28;20514;-80
2020/12/15 00:55:37;;;;;;;8.77;4.15;;;8.00;99.90;;;;;;5013376;28;20040;-82
2020/12/15 00:58:03;;;;;;;7.00;4.18;;;7.90;99.90;;;;;;5025447;28;20049;-83
2020/12/15 01:00:29;;;;;;;7.55;4.13;;;7.90;99.90;;;;;;5034468;28;20119;-82
2020/12/15 01:02:55;;;;;;;8.10;3.50;;;7.90;99.90;;;;;;5027894;28;20045;-84
2020/12/15 01:05:21;;;;;;;6.50;4.13;;;7.90;99.90;;;;;;4998686;28;22122;-85
2020/12/15 01:07:48;;;;;;;6.93;4.03;;;8.50;99.90;;;;;;5018128;28;20060;-85
2020/12/15 01:10:14;;;;;;;7.82;4.22;;;10.90;99.90;;;;;;5027580;28;20109;-84
2020/12/15 01:12:39;;;;;;;9.32;4.05;;;7.90;99.90;;;;;;5020532;28;20068;-85
2020/12/15 01:15:05;;;;;;;7.00;4.00;;;7.90;99.90;;;;;;5017194;28;20034;-84
2020/12/15 01:17:31;;;;;;;8.70;3.80;;;7.90;99.90;;;;;;5028008;28;20045;-83
2020/12/15 01:19:57;;;;;;;7.47;3.40;;;7.90;99.90;;;;;;5044695;28;20396;-85
2020/12/15 01:22:23;;;;;;;6.65;3.47;;;9.10;99.90;;;;;;5019090;28;20124;-86
2020/12/15 01:24:49;;;;;;;5.68;3.35;;;7.90;99.90;;;;;;5024583;28;20049;-83
2020/12/15 01:27:14;;;;;;;7.20;3.70;;;7.80;99.90;;;;;;5006148;28;20783;-84
2020/12/15 01:29:40;;;;;;;7.97;3.92;;;8.00;99.90;;;;;;5011052;28;20041;-82
2020/12/15 01:32:05;;;;;;;4.82;3.17;;;8.00;99.90;;;;;;5024620;28;20057;-82
2020/12/15 01:34:32;;;;;;;7.38;3.70;;;8.50;99.90;;;;;;5024197;28;20073;-83
2020/12/15 01:37:03;;;;;;;9.32;3.53;;;8.00;99.90;;;;;;5026972;28;20050;-81
2020/12/15 01:39:30;;;;;;;5.47;3.25;;;8.00;99.90;;;;;;5028517;28;20046;-84
2020/12/15 01:41:56;;;;;;;7.97;3.88;;;8.00;99.90;;;;;;5019790;28;20080;-85
2020/12/15 01:44:22;;;;;;;5.55;3.30;;;8.00;99.90;;;;;;5024840;28;20068;-81
2020/12/15 01:46:50;;;;;;;5.93;3.35;;;10.70;99.90;;;;;;5024020;28;20036;-83
2020/12/15 01:49:17;;;;;;;7.53;3.40;;;8.10;99.90;;;;;;5025175;28;20022;-82
2020/12/15 01:51:45;;;;;;;5.75;3.25;;;8.10;99.90;;;;;;5024669;28;20056;-86
2020/12/15 01:54:12;;;;;;;7.05;3.40;;;8.10;99.90;;;;;;5035908;28;20034;-84
2020/12/15 01:56:38;;;;;;;10.63;3.70;;;8.00;99.90;;;;;;5009568;28;605380;-83
2020/12/15 01:59:05;;;;;;;5.00;3.15;;;8.10;99.90;;;;;;5018796;28;20037;-84
2020/12/15 02:01:43;;;;;;;5.20;3.20;;;8.10;99.90;;;;;;5025957;28;20119;-84
2020/12/15 02:04:08;;;;;;;7.60;3.30;;;8.20;99.90;;;;;;5027661;28;20030;-85
2020/12/15 02:06:34;;;;;;;6.03;3.25;;;8.20;99.90;;;;;;5030857;28;20038;-82
2020/12/15 02:09:00;;;;;;;5.30;3.08;;;8.10;99.90;;;;;;5017598;28;20515;-86
2020/12/15 02:11:29;;;;;;;7.03;3.35;;;8.20;99.90;;;;;;5022547;28;20030;-84
2020/12/15 02:13:55;;;;;;;6.47;3.30;;;8.20;99.90;;;;;;5025035;28;20026;-83
2020/12/15 02:16:20;;;;;;;7.68;3.80;;;8.20;99.90;;;;;;5025153;28;20565;-82
2020/12/15 02:18:46;;;;;;;7.18;3.15;;;8.20;99.90;;;;;;5042210;28;20141;-80
2020/12/15 02:21:12;;;;;;;8.35;3.47;;;8.20;99.90;;;;;;5020270;28;20037;-82
2020/12/15 02:23:38;;;;;;;5.75;3.40;;;8.20;99.90;;;;;;5024520;28;20180;-84
2020/12/15 02:26:06;;;;;;;6.65;3.20;;;8.40;99.90;;;;;;5015869;28;20121;-82
2020/12/15 02:28:32;;;;;;;7.82;3.83;;;8.20;99.90;;;;;;5012707;28;20131;-81
2020/12/15 02:30:58;;;;;;;6.93;3.75;;;10.20;99.90;;;;;;5020169;28;20041;-81
2020/12/15 02:33:23;;;;;;;9.50;3.75;;;10.40;99.90;;;;;;5014477;28;20305;-83
2020/12/15 02:35:51;;;;;;;8.27;3.30;;;8.20;99.90;;;;;;5017270;28;20042;-84
2020/12/15 02:38:17;;;;;;;7.88;3.45;;;8.30;99.90;;;;;;5015280;28;20407;-83
2020/12/15 02:40:43;;;;;;;6.70;3.38;;;8.30;99.90;;;;;;5013627;28;20040;-82
2020/12/15 02:43:09;;;;;;;7.53;3.17;;;8.50;99.90;;;;;;5014077;28;20037;-82
2020/12/15 02:45:34;;;;;;;7.22;3.10;;;8.40;99.90;;;;;;5014179;28;20038;-83
2020/12/15 02:48:00;;;;;;;7.25;3.85;;;8.30;99.90;;;;;;5012642;28;20453;-82
2020/12/15 02:50:26;;;;;;;7.20;3.25;;;8.30;99.90;;;;;;5014229;28;20041;-83
2020/12/15 02:52:52;;;;;;;7.53;3.28;;;8.30;99.90;;;;;;5012324;28;20032;-83
2020/12/15 02:55:18;;;;;;;5.82;3.38;;;8.30;99.90;;;;;;5013339;28;20017;-82
2020/12/15 02:57:47;;;;;;;8.23;3.47;;;8.30;99.90;;;;;;5013638;28;20050;-83
2020/12/15 03:00:13;;;;;;;5.85;3.30;;;8.40;99.90;;;;;;5015260;28;20420;-81
2020/12/15 03:02:38;;;;;;;9.13;3.53;;;8.30;99.90;;;;;;5013113;28;20080;-83
2020/12/15 03:05:04;;;;;;;7.32;3.67;;;8.40;99.90;;;;;;5013596;28;20062;-84
2020/12/15 03:07:31;;;;;;;4.90;2.97;;;8.40;99.90;;;;;;5011244;28;20042;-83
2020/12/15 03:09:56;;;;;;;7.45;3.42;;;10.50;99.90;;;;;;5012925;28;20021;-83
2020/12/15 03:12:22;;;;;;;7.43;3.25;;;8.40;99.90;;;;;;5013023;28;20070;-83
2020/12/15 03:14:49;;;;;;;11.20;3.90;;;8.40;99.90;;;;;;5012654;28;20084;-84
2020/12/15 03:17:16;;;;;;;7.70;3.88;;;8.40;99.90;;;;;;5010199;28;20053;-82
2020/12/15 03:19:41;;;;;;;10.10;3.70;;;8.40;99.90;;;;;;5012061;28;20037;-81
2020/12/15 03:22:08;;;;;;;6.72;3.60;;;8.40;99.90;;;;;;5014219;28;20095;-85
2020/12/15 03:24:33;;;;;;;7.28;3.92;;;8.40;99.90;;;;;;5026192;28;20021;-84
2020/12/15 03:26:59;;;;;;;7.13;3.90;;;8.40;99.90;;;;;;5034124;28;20893;-82
2020/12/15 03:29:25;;;;;;;6.03;3.47;;;8.40;99.90;;;;;;5010238;28;20034;-82
2020/12/15 03:31:51;;;;;;;6.20;3.45;;;8.40;99.90;;;;;;5013440;28;20430;-80
2020/12/15 03:34:16;;;;;;;9.75;4.38;;;9.50;99.90;;;;;;5012458;28;20141;-83
2020/12/15 03:36:42;;;;;;;9.25;3.70;;;8.40;99.90;;;;;;5015738;28;20042;-81
2020/12/15 03:39:08;;;;;;;7.10;4.00;;;8.40;99.90;;;;;;5011712;28;20045;-82
2020/12/15 03:41:35;;;;;;;8.73;3.90;;;8.50;99.90;;;;;;4994434;28;20045;-82
2020/12/15 03:44:01;;;;;;;7.85;4.03;;;8.60;99.90;;;;;;5015814;28;20048;-82
2020/12/15 03:46:27;;;;;;;7.82;3.70;;;8.50;99.90;;;;;;5018656;28;20050;-81
2020/12/15 03:48:53;;;;;;;7.82;3.65;;;8.50;99.90;;;;;;5019084;28;20038;-80
2020/12/15 03:51:19;;;;;;;7.35;4.03;;;8.50;99.90;;;;;;5026990;28;20033;-82
2020/12/15 03:53:44;;;;;;;8.77;4.13;;;8.50;99.90;;;;;;5024458;28;20060;-83
2020/12/15 03:56:11;;;;;;;7.53;3.75;;;8.50;99.90;;;;;;5021931;28;20037;-82
2020/12/15 03:58:38;;;;;;;6.78;4.43;;;10.40;99.90;;;;;;5018447;28;20045;-84
2020/12/15 04:01:04;;;;;;;8.43;4.07;;;8.50;99.90;;;;;;5021374;28;20052;-82
2020/12/15 04:03:30;;;;;;;8.80;4.35;;;8.40;99.90;;;;;;5033943;28;20072;-84
2020/12/15 04:05:59;;;;;;;7.13;3.85;;;8.50;99.90;;;;;;5018804;28;20450;-82
2020/12/15 04:08:25;;;;;;;11.25;4.35;;;8.50;99.90;;;;;;5014091;28;20125;-80
2020/12/15 04:10:52;;;;;;;7.82;4.30;;;8.50;99.90;;;;;;5024358;28;20037;-82
2020/12/15 04:13:18;;;;;;;8.20;4.82;;;8.70;99.90;;;;;;5016836;28;20033;-82
2020/12/15 04:15:44;;;;;;;8.55;4.30;;;8.60;99.90;;;;;;5022157;28;20825;-82
2020/12/15 04:18:10;;;;;;;8.05;4.50;;;10.40;99.90;;;;;;5025972;28;20041;-83
2020/12/15 04:20:35;;;;;;;9.57;5.05;;;8.60;99.90;;;;;;5019991;28;20473;-79
2020/12/15 04:23:01;;;;;;;10.23;4.53;;;8.60;99.90;;;;;;5019796;28;20037;-82
2020/12/15 04:25:27;;;;;;;6.80;4.20;;;8.60;99.90;;;;;;5016027;28;20042;-82
2020/12/15 04:27:53;;;;;;;7.45;4.88;;;8.60;99.90;;;;;;5015562;28;20034;-81
2020/12/15 04:30:19;;;;;;;8.10;4.75;;;8.60;99.90;;;;;;5018334;28;20042;-80
2020/12/15 04:32:49;;;;;;;9.85;4.57;;;8.60;99.90;;;;;;5021211;28;20037;-78
2020/12/15 04:35:15;;;;;;;9.13;4.80;;;8.60;99.90;;;;;;5023403;28;20361;-81
2020/12/15 04:37:42;;;;;;;10.43;4.57;;;8.60;99.90;;;;;;5020199;28;20437;-81
2020/12/15 04:40:08;;;;;;;10.77;4.68;;;8.60;99.90;;;;;;5021823;28;20038;-81
2020/12/15 04:42:35;;;;;;;9.05;4.50;;;8.60;99.90;;;;;;5021460;28;20060;-82
2020/12/15 04:45:00;;;;;;;8.20;5.00;;;8.50;99.90;;;;;;5021503;28;20037;-82
2020/12/15 04:47:42;;;;;;;9.75;4.75;;;8.50;99.90;;;;;;5020836;28;20041;-82
2020/12/15 04:50:10;;;;;;;9.80;5.10;;;8.60;99.90;;;;;;5026546;28;20018;-80
2020/12/15 04:52:50;;;;;;;9.50;4.90;;;8.70;99.90;;;;;;5020715;28;20022;-80
2020/12/15 04:55:16;;;;;;;11.40;6.25;;;8.70;99.90;;;;;;5027334;28;20029;-81
2020/12/15 04:57:46;;;;;;;9.05;5.45;;;8.70;99.90;;;;;;5036689;28;20094;-81
2020/12/15 05:00:12;;;;;;;12.80;6.10;;;8.70;99.90;;;;;;5023504;28;20041;-83
2020/12/15 05:02:42;;;;;;;9.15;5.25;;;8.70;99.90;;;;;;5026835;28;20038;-79
2020/12/15 05:05:10;;;;;;;11.38;5.53;;;8.70;99.90;;;;;;5026021;28;20036;-84
2020/12/15 05:07:42;;;;;;;9.93;4.72;;;8.90;99.90;;;;;;5028829;28;20041;-82
2020/12/15 05:10:12;;;;;;;9.57;5.30;;;8.80;99.90;;;;;;5024290;28;20569;-81
2020/12/15 05:12:38;;;;;;;9.80;4.72;;;8.70;99.90;;;;;;5023931;28;20129;-84
2020/12/15 05:15:09;;;;;;;9.40;4.47;;;8.80;99.90;;;;;;5031648;28;20040;-83
2020/12/15 05:17:36;;;;;;;9.20;5.13;;;8.70;99.90;;;;;;5020557;28;20121;-82
2020/12/15 05:20:05;;;;;;;9.00;4.88;;;8.90;99.90;;;;;;5025182;28;20038;-82
2020/12/15 05:22:45;;;;;;;11.77;4.88;;;8.80;99.90;;;;;;5022247;28;20037;-83
2020/12/15 05:25:34;;;;;;;7.32;4.45;;;8.70;99.90;;;;;;5033152;28;20073;-82
2020/12/15 05:28:01;;;;;;;7.40;4.85;;;8.80;99.90;;;;;;5021476;28;20034;-80
2020/12/15 05:30:29;;;;;;;7.57;4.57;;;8.80;99.90;;;;;;5020844;28;20041;-83
2020/12/15 05:32:56;;;;;;;7.95;4.70;;;8.80;99.90;;;;;;5024541;28;20018;-81
2020/12/15 05:35:30;;;;;;;9.77;4.95;;;8.80;99.90;;;;;;5020304;28;20037;-83
2020/12/15 05:38:01;;;;;;;8.98;5.07;;;8.80;99.90;;;;;;5025220;28;20026;-83
2020/12/15 05:40:27;;;;;;;11.50;5.25;;;8.80;99.90;;;;;;5029444;28;20061;-83
2020/12/15 05:43:03;;;;;;;11.75;5.30;;;8.80;99.90;;;;;;5030628;28;20042;-82
2020/12/15 05:45:31;;;;;;;8.07;5.00;;;8.80;99.90;;;;;;5029633;28;20514;-83
2020/12/15 05:48:01;;;;;;;10.27;5.53;;;8.70;99.90;;;;;;5019485;28;20069;-84
2020/12/15 05:50:26;;;;;;;10.38;5.53;;;9.80;99.90;;;;;;5037931;28;20037;-83
2020/12/15 05:52:59;;;;;;;11.90;5.63;;;8.70;99.90;;;;;;5020996;28;20045;-81
2020/12/15 05:55:25;;;;;;;12.90;5.55;;;8.80;99.90;;;;;;5023425;28;20108;-81
2020/12/15 05:57:52;;;;;;;11.90;5.15;;;8.80;99.90;;;;;;5019958;28;20423;-81
2020/12/15 06:00:18;;;;;;;9.07;5.35;;;10.40;99.90;;;;;;5021477;28;20057;-82
2020/12/15 06:02:44;;;;;;;12.20;5.63;;;8.90;99.90;;;;;;5008677;28;20061;-83
2020/12/15 06:05:10;;;;;;;9.88;5.30;;;8.80;99.90;;;;;;5032343;28;20060;-82
2020/12/15 06:07:36;;;;;;;11.13;5.25;;;9.00;99.90;;;;;;5024268;28;20086;-80
2020/12/15 06:10:05;;;;;;;12.30;5.60;;;8.90;99.90;;;;;;5024292;28;20463;-81
2020/12/15 06:12:31;;;;;;;11.48;5.20;;;8.90;99.90;;;;;;5019598;28;20563;-84
2020/12/15 06:14:57;;;;;;;8.77;6.03;;;8.90;99.90;;;;;;5014304;28;20507;-83
2020/12/15 06:17:23;;;;;;;8.70;5.38;;;8.90;99.90;;;;;;5023402;28;20087;-82
2020/12/15 06:19:53;;;;;;;11.48;6.18;;;10.70;99.90;;;;;;5025211;28;20056;-82
2020/12/15 06:22:21;;;;;;;11.25;5.55;;;9.00;99.90;;;;;;5024237;28;20121;-82
2020/12/15 06:24:55;;;;;;;10.32;5.30;;;10.10;99.90;;;;;;5022418;28;20034;-84
2020/12/15 06:27:32;;;;;;;12.38;5.78;;;9.00;99.90;;;;;;5020322;28;20041;-83
2020/12/15 06:29:58;;;;;;;11.93;6.07;;;9.00;99.90;;;;;;5019127;28;20033;-83
2020/12/15 06:32:24;;;;;;;12.32;6.38;;;9.00;99.90;;;;;;5022469;28;20048;-83
2020/12/15 06:34:52;;;;;;;16.58;11.23;;;9.00;99.90;;;;;;5018074;28;20679;-83
2020/12/15 06:37:20;;;;;;;12.23;6.47;;;9.00;99.90;;;;;;5019864;28;20042;-84
2020/12/15 06:39:57;;;;;;;13.48;6.63;;;9.00;99.90;;;;;;5020224;28;20061;-84
2020/12/15 06:42:24;;;;;;;12.02;6.00;;;8.90;99.90;;;;;;5019921;28;20511;-83
2020/12/15 06:45:11;;;;;;;18.38;6.95;;;8.90;99.90;;;;;;5021909;28;20144;-82
2020/12/15 06:47:38;;;;;;;11.27;6.18;;;9.00;99.90;;;;;;5023258;28;20080;-84
2020/12/15 06:50:14;;;;;;;12.65;6.75;;;9.00;99.90;;;;;;5028773;28;21536;-85
2020/12/15 06:52:40;;;;;;;15.02;7.13;;;9.00;99.90;;;;;;5020513;28;20511;-83
2020/12/15 06:55:06;;;;;;;14.38;6.35;;;;;;;;;;5021903;28;20044;-82
2020/12/15 06:57:38;;;;;;;9.40;5.90;;;9.20;99.90;;;;;;5024858;28;20183;-82
2020/12/15 07:00:13;;;;;;;9.80;5.68;;;9.20;99.90;;;;;;5026596;28;20045;-81
2020/12/15 07:02:50;;;;;;;11.73;6.50;;;9.20;99.90;;;;;;5006005;28;20049;-78
2020/12/15 07:05:35;;;;;;;12.52;6.57;;;9.30;99.90;;;;;;5021097;28;20037;-82
2020/12/15 07:08:11;;;;;;;12.32;6.40;;;9.10;99.90;;;;;;5023360;28;20209;-80
2020/12/15 07:10:42;;;;;;;14.15;6.80;;;9.20;99.90;;;;;;5022760;28;20026;-83
2020/12/15 07:13:11;;;;;;;13.30;6.47;;;10.30;99.90;;;;;;5026329;28;20036;-81
2020/12/15 07:15:37;;;;;;;12.82;6.82;;;9.20;99.90;;;;;;5021601;28;20053;-81
2020/12/15 07:18:04;;;;;;;11.50;6.90;;;9.20;99.90;;;;;;5027531;28;20075;-80
2020/12/15 07:20:30;;;;;;;16.98;7.13;;;9.20;99.90;;;;;;5019667;28;20041;-81
2020/12/15 07:22:57;;;;;;;10.75;6.75;;;9.80;99.90;;;;;;5026995;28;20038;-82
2020/12/15 07:25:23;;;;;;;15.82;7.28;;;9.20;99.90;;;;;;5026267;28;20038;-84
2020/12/15 07:27:50;;;;;;;17.17;7.55;;;9.20;99.90;;;;;;5022454;28;20038;-83
2020/12/15 07:30:18;;;;;;;18.15;6.55;;;9.20;99.90;;;;;;5025415;28;20029;-84
2020/12/15 07:32:46;;;;;;;15.55;6.95;;;9.20;99.90;;;;;;5033477;28;20121;-83
2020/12/15 07:35:18;;;;;;;13.48;6.90;;;9.20;99.90;;;;;;5038672;28;20029;-83
2020/12/15 07:37:44;;;;;;;13.90;6.82;;;;;;;;;;5044758;28;20054;-84
2020/12/15 07:40:12;;;;;;;13.82;6.45;;;;;;;;;;5028296;28;20038;-82
2020/12/15 07:42:38;;;;;;;12.73;6.43;;;;;;;;;;5043712;28;20413;-83
2020/12/15 07:45:06;;;;;;;17.85;9.10;;;;;;;;;;5025791;28;20080;-82
2020/12/15 07:47:39;;;;;;;11.80;6.05;;;;;;;;;;5029825;28;20062;-81
2020/12/15 07:50:05;;;;;;;12.57;6.43;;;;;;;;;;5020870;28;20030;-79
2020/12/15 07:52:35;;;;;;;12.88;6.68;;;;;;;;;;5022266;28;20033;-80
2020/12/15 07:55:13;;;;;;;11.10;5.32;;;9.50;99.90;;;;;;5033362;28;20581;-79
2020/12/15 07:57:40;;;;;;;15.13;6.53;;;9.50;99.90;;;;;;5027145;28;20092;-81
2020/12/15 08:00:16;;;;;;;13.82;6.10;;;;;;;;;;5026980;28;20038;-82
2020/12/15 08:02:43;;;;;;;9.00;5.05;;;9.50;99.90;;;;;;5025045;28;20441;-79
2020/12/15 08:05:14;;;;;;;12.10;5.88;;;;;;;;;;5019222;28;20029;-78
2020/12/15 08:07:51;;;;;;;12.35;6.32;;;9.40;99.90;;;;;;5029948;28;20052;-81
2020/12/15 08:10:30;;;;;;;11.80;6.00;;;9.50;99.90;;;;;;5019522;28;20032;-81
2020/12/15 08:12:58;;;;;;;13.00;6.18;;;;;;;;;;5021423;28;20044;-81
2020/12/15 08:15:25;;;;;;;11.10;6.18;;;9.60;99.90;;;;;;5017311;28;20037;-80
2020/12/15 08:17:51;;;;;;;10.90;6.30;;;11.30;99.90;;;;;;5021441;28;20104;-80
2020/12/15 08:20:25;;;;;;;11.80;5.65;;;11.20;99.90;;;;;;5027816;28;20061;-80
2020/12/15 08:23:07;;;;;;;16.50;6.32;;;11.10;99.90;;;;;;5029284;28;20041;-80
2020/12/15 08:25:35;;;;;;;19.42;6.57;;;9.40;99.90;;;;;;5021340;28;20134;-81
2020/12/15 08:28:11;;;;;;;11.82;6.13;;;9.50;99.90;;;;;;5053740;28;20037;-79
2020/12/15 08:30:38;;;;;;;12.52;6.53;;;;;;;;;;5035678;28;20025;-79
2020/12/15 08:33:04;;;;;;;14.57;5.55;;;;;;;;;;5033439;28;20160;-80
2020/12/15 08:35:30;;;;;;;13.27;5.88;;;;;;;;;;5032475;28;20042;-81
2020/12/15 08:38:01;;;;;;;12.32;5.63;;;9.60;99.90;;;;;;5028099;28;20033;-79
2020/12/15 08:40:28;;;;;;;10.93;5.95;;;;;;;;;;5034674;28;20060;-79
2020/12/15 08:42:55;;;;;;;11.57;5.40;;;;;;;;;;5024310;28;20064;-80
2020/12/15 08:45:25;;;;;;;12.68;6.15;;;;;;;;;;5024392;28;20073;-80
2020/12/15 08:47:52;;;;;;;14.47;6.60;;;9.60;99.90;;;;;;5031205;28;20022;-80
2020/12/15 08:50:19;;;;;;;16.35;6.13;;;;;;;;;;5033377;28;20399;-78
2020/12/15 08:52:46;;;;;;;16.00;6.80;;;9.60;99.90;;;;;;5023692;28;21234;-80
2020/12/15 08:55:11;;;;;;;14.52;6.75;;;9.60;99.90;;;;;;5033407;28;20034;-81
2020/12/15 08:57:37;;;;;;;13.52;6.93;;;9.60;99.90;;;;;;5012677;28;20046;-79
2020/12/15 09:00:16;;;;;;;16.73;6.97;;;10.90;99.90;;;;;;5015250;28;20041;-79
2020/12/15 09:02:42;;;;;;;13.65;6.85;;;9.60;99.90;;;;;;5030332;28;20044;-78
2020/12/15 09:05:12;;;;;;;15.02;6.80;;;9.60;99.90;;;;;;5032861;28;20136;-79
2020/12/15 09:07:39;;;;;;;15.82;6.82;;;9.60;99.90;;;;;;5023842;28;20396;-77
2020/12/15 09:10:14;;;;;;;13.95;7.00;;;10.30;99.90;;;;;;5026507;28;20045;-81
2020/12/15 09:12:46;;;;;;;12.07;6.55;;;9.60;99.90;;;;;;5023369;28;20074;-81
2020/12/15 09:15:15;;;;;;;13.63;7.10;;;9.70;99.90;;;;;;5029903;28;20083;-83
2020/12/15 09:17:49;;;;;;;11.75;6.35;;;9.80;99.90;;;;;;5020639;28;20036;-80
2020/12/15 09:20:25;;;;;;;13.43;6.95;;;9.70;99.90;;;;;;5024255;28;20102;-81
2020/12/15 09:22:50;;;;;;;15.05;7.55;;;9.70;99.90;;;;;;5025020;28;20476;-81
2020/12/15 09:25:16;;;;;;;13.93;6.97;;;9.40;99.90;;;;;;5029550;28;20056;-81
2020/12/15 09:27:48;;;;;;;13.65;7.32;;;9.70;99.90;;;;;;5028800;28;20493;-80
2020/12/15 09:30:16;;;;;;;12.88;7.20;;;12.30;99.90;;;;;;5046335;28;20064;-77
2020/12/15 09:32:42;;;;;;;14.27;7.15;;;9.60;99.90;;;;;;5033446;28;20030;-78
2020/12/15 09:35:12;;;;;;;15.77;7.60;;;10.50;99.90;;;;;;5027428;28;20037;-80
2020/12/15 09:37:39;;;;;;;13.35;7.03;;;9.50;99.90;;;;;;5030065;28;20067;-79
2020/12/15 09:40:09;;;;;;;15.55;7.22;;;10.90;99.90;;;;;;5025728;28;20042;-80
2020/12/15 09:42:36;;;;;;;11.88;6.75;;;9.60;99.90;;;;;;5024763;28;20085;-80
2020/12/15 09:45:06;;;;;;;14.52;7.55;;;10.50;99.90;;;;;;5023859;28;20033;-79
2020/12/15 09:47:32;;;;;;;21.17;8.90;;;9.60;99.90;;;;;;5027031;28;20437;-80
2020/12/15 09:49:57;;;;;;;17.33;6.80;;;9.70;99.90;;;;;;5029146;28;20085;-82
2020/12/15 09:52:25;;;;;;;11.00;6.10;;;9.70;99.90;;;;;;5024254;28;20064;-81
2020/12/15 09:54:51;;;;;;;19.63;7.55;;;9.70;99.90;;;;;;5038566;28;20102;-82
2020/12/15 09:57:16;;;;;;;12.65;6.85;;;11.50;99.90;;;;;;5012092;28;20088;-82
2020/12/15 09:59:42;;;;;;;12.30;7.15;;;9.80;99.90;;;;;;5033626;28;20146;-79
2020/12/15 10:02:10;;;;;;;18.17;7.88;;;9.40;99.90;;;;;;5028795;28;20060;-83
2020/12/15 10:04:35;;;;;;;12.13;5.70;;;10.50;99.90;;;;;;5029615;28;20068;-80
2020/12/15 10:07:02;;;;;;;11.45;5.43;;;10.40;99.90;;;;;;5030287;28;20050;-81
2020/12/15 10:09:28;;;;;;;13.32;5.90;;;10.00;99.90;;;;;;5024351;28;20059;-83
2020/12/15 10:11:53;;;;;;;12.30;6.10;;;10.10;99.90;;;;;;5033167;28;20048;-80
2020/12/15 10:14:19;;;;;;;17.33;6.82;;;12.10;99.90;;;;;;5024341;28;20038;-79
2020/12/15 10:16:45;;;;;;;17.25;6.63;;;11.30;99.90;;;;;;5025617;28;20574;-79
2020/12/15 10:19:12;;;;;;;12.38;6.65;;;10.00;99.90;;;;;;5020012;28;20037;-79
2020/12/15 10:21:38;;;;;;;17.88;8.00;;;11.80;99.90;;;;;;5024364;28;20052;-81
2020/12/15 10:24:04;;;;;;;17.80;6.15;;;10.00;99.90;;;;;;5026439;28;20075;-80
2020/12/15 10:26:30;;;;;;;13.15;6.35;;;10.10;99.90;;;;;;5028041;28;20049;-82
2020/12/15 10:28:56;;;;;;;13.00;5.85;;;8.90;99.90;;;;;;5024760;28;20042;-81
2020/12/15 10:31:22;;;;;;;16.88;6.45;;;10.10;99.90;;;;;;5047108;28;20065;-82
2020/12/15 10:33:49;;;;;;;14.43;5.75;;;10.20;99.90;;;;;;5028991;28;20038;-82
2020/12/15 10:36:15;;;;;;;11.57;5.63;;;10.60;99.90;;;;;;5035581;28;20041;-83
2020/12/15 10:38:41;;;;;;;12.32;5.75;;;10.20;99.90;;;;;;5032067;28;20058;-81
2020/12/15 10:41:07;;;;;;;9.20;5.13;;;11.20;99.90;;;;;;5031275;28;20034;-81
2020/12/15 10:43:34;;;;;;;8.05;4.75;;;12.80;99.90;;;;;;5032400;28;20049;-82
2020/12/15 10:46:00;;;;;;;8.82;5.25;;;10.30;99.90;;;;;;5039347;28;20037;-83
2020/12/15 10:48:25;;;;;;;10.75;5.43;;;11.80;99.90;;;;;;5032079;28;20046;-80
2020/12/15 10:50:51;;;;;;;11.07;5.75;;;10.60;99.90;;;;;;5029746;28;20038;-79
2020/12/15 10:53:18;;;;;;;13.00;5.05;;;10.70;99.90;;;;;;5026632;28;20021;-81
2020/12/15 10:55:48;;;;;;;10.02;4.95;;;10.70;99.90;;;;;;5050087;28;20042;-83
2020/12/15 10:58:13;;;;;;;9.05;4.85;;;13.60;99.90;;;;;;5022179;28;20095;-81
2020/12/15 11:00:39;;;;;;;8.02;4.40;;;10.80;99.90;;;;;;4999373;28;20518;-80
2020/12/15 11:03:05;;;;;;;11.23;4.50;;;13.80;99.90;;;;;;5026337;28;20069;-81
2020/12/15 11:05:30;;;;;;;7.35;4.38;;;10.80;99.90;;;;;;5015899;28;20041;-81
2020/12/15 11:07:56;;;;;;;13.82;4.35;;;14.20;99.90;;;;;;5015178;28;20061;-82
2020/12/15 11:10:22;;;;;;;9.00;4.10;;;11.90;99.90;;;;;;5023565;28;20049;-82
2020/12/15 11:12:47;;;;;;;6.57;4.00;;;10.70;99.90;;;;;;5029242;28;20075;-80
2020/12/15 11:15:13;;;;;;;10.55;4.03;;;10.70;99.90;;;;;;5020561;28;20066;-81
2020/12/15 11:17:39;;;;;;;7.03;3.88;;;11.40;99.90;;;;;;5026232;28;20033;-79
2020/12/15 11:20:05;;;;;;;8.00;3.40;;;10.70;99.90;;;;;;5018403;28;20798;-80
2020/12/15 11:22:31;;;;;;;8.43;4.20;;;10.80;99.90;;;;;;5020506;28;20483;-81
2020/12/15 11:24:56;;;;;;;10.27;3.65;;;10.90;99.90;;;;;;5024372;28;20126;-82
2020/12/15 11:27:22;;;;;;;9.18;3.78;;;12.40;99.90;;;;;;5023157;28;20056;-80
2020/12/15 11:29:48;;;;;;;9.98;3.53;;;10.80;99.90;;;;;;5024910;28;20389;-79
2020/12/15 11:32:14;;;;;;;10.65;4.25;;;11.50;99.90;;;;;;5030828;28;20042;-80
2020/12/15 11:34:40;;;;;;;9.27;3.65;;;11.30;99.90;;;;;;5020198;28;20380;-80
2020/12/15 11:37:09;;;;;;;9.50;4.00;;;10.80;99.90;;;;;;5021194;28;20100;-81
2020/12/15 11:39:36;;;;;;;8.95;3.58;;;10.70;99.90;;;;;;5032673;28;20021;-81
2020/12/15 11:42:06;;;;;;;7.22;3.60;;;10.80;99.90;;;;;;5026934;28;20106;-79
2020/12/15 11:44:33;;;;;;;6.82;3.60;;;10.90;99.90;;;;;;5036021;28;20042;-80
2020/12/15 11:46:59;;;;;;;11.02;4.50;;;10.90;99.90;;;;;;5018939;28;20041;-80
2020/12/15 11:49:25;;;;;;;4.63;3.20;;;12.70;99.90;;;;;;5032892;28;20063;-84
2020/12/15 11:51:55;;;;;;;8.13;3.50;;;10.90;99.90;;;;;;5011124;28;20052;-81
2020/12/15 11:54:21;;;;;;;9.55;4.28;;;10.90;99.90;;;;;;5023437;28;20042;-81
2020/12/15 11:56:50;;;;;;;8.57;3.70;;;10.90;99.90;;;;;;5025198;28;20033;-79
2020/12/15 11:59:16;;;;;;;7.00;3.78;;;10.90;99.90;;;;;;5026877;28;20043;-81
2020/12/15 12:01:42;;;;;;;6.47;3.90;;;11.00;99.90;;;;;;5030011;28;20026;-79
2020/12/15 12:04:07;;;;;;;11.55;3.58;;;10.90;99.90;;;;;;5003230;28;20041;-80
2020/12/15 12:06:34;;;;;;;4.85;3.40;;;10.90;99.90;;;;;;5028625;28;20568;-79
2020/12/15 12:09:00;;;;;;;8.85;4.03;;;10.90;99.90;;;;;;5031752;28;20517;-80
2020/12/15 12:11:27;;;;;;;9.02;4.55;;;10.90;99.90;;;;;;5028868;28;20033;-80
2020/12/15 12:13:53;;;;;;;6.00;4.07;;;10.90;99.90;;;;;;5032664;28;20130;-79
2020/12/15 12:16:19;;;;;;;10.82;3.95;;;10.90;99.90;;;;;;5037695;28;20041;-78
2020/12/15 12:18:44;;;;;;;10.50;4.57;;;10.90;99.90;;;;;;5030319;28;20466;-77
2020/12/15 12:21:10;;;;;;;8.07;4.88;;;10.90;99.90;;;;;;5026535;28;20042;-81
2020/12/15 12:23:39;;;;;;;7.00;4.35;;;11.00;99.90;;;;;;5019424;28;20095;-79
2020/12/15 12:26:05;;;;;;;11.98;5.57;;;12.60;99.90;;;;;;5026888;28;20026;-81
2020/12/15 12:28:32;;;;;;;11.13;5.93;;;11.00;99.90;;;;;;5044687;28;20076;-81
2020/12/15 12:30:58;;;;;;;7.65;4.53;;;11.00;99.90;;;;;;5029111;28;20065;-80
2020/12/15 12:33:25;;;;;;;5.82;4.15;;;11.00;99.90;;;;;;5034937;28;20049;-79
2020/12/15 12:35:53;;;;;;;6.22;4.20;;;11.00;99.90;;;;;;5011762;28;20041;-81
2020/12/15 12:38:20;;;;;;;7.63;4.40;;;11.00;99.90;;;;;;5022425;28;20041;-80
2020/12/15 12:40:46;;;;;;;8.02;4.85;;;11.00;99.90;;;;;;5020177;28;20332;-81
2020/12/15 12:43:13;;;;;;;12.63;5.43;;;11.00;99.90;;;;;;5029257;28;20045;-81
2020/12/15 12:45:40;;;;;;;6.05;3.83;;;11.00;99.90;;;;;;5032359;28;20132;-80
2020/12/15 12:48:08;;;;;;;7.13;4.32;;;11.20;99.90;;;;;;5029056;28;21021;-79
2020/12/15 12:50:35;;;;;;;7.43;4.80;;;11.10;99.90;;;;;;5026841;28;20517;-83
2020/12/15 12:53:03;;;;;;;7.28;4.45;;;11.10;99.90;;;;;;5031143;28;20038;-81
2020/12/15 12:55:29;;;;;;;7.10;4.47;;;11.00;99.90;;;;;;5034381;28;20038;-81
2020/12/15 12:57:55;;;;;;;6.95;4.13;;;11.10;99.90;;;;;;5036746;28;20422;-81